createdAt,value
2023-04-02T00:00:21.878Z,1.30
2023-04-02T00:05:51.857Z,1.20
2023-04-02T00:11:00.495Z,1.70
2023-04-02T00:16:11.859Z,0.70
2023-04-02T00:21:24.791Z,1.40
2023-04-02T00:26:37.905Z,1.20
2023-04-02T00:31:47.745Z,0.90
2023-04-02T00:36:54.877Z,1.40
2023-04-02T00:42:05.236Z,1.30
2023-04-02T00:47:20.818Z,1.60
2023-04-02T00:52:30.776Z,1.50
2023-04-02T00:57:36.863Z,1.20
2023-04-02T01:02:42.895Z,1.60
2023-04-02T01:08:04.813Z,1.90
2023-04-02T01:13:25.179Z,1.40
2023-04-02T01:18:46.534Z,1.50
2023-04-02T01:24:04.344Z,1.60
2023-04-02T01:29:14.417Z,1.20
2023-04-02T01:34:25.073Z,1.60
2023-04-02T01:39:48.999Z,1.70
2023-04-02T01:45:01.970Z,2.20
2023-04-02T01:50:31.062Z,1.80
2023-04-02T01:55:44.442Z,2.80
2023-04-02T02:00:56.436Z,2.10
2023-04-02T02:06:05.259Z,2.40
2023-04-02T02:11:17.294Z,1.70
2023-04-02T02:16:24.410Z,2.50
2023-04-02T02:21:42.022Z,2.50
2023-04-02T02:26:51.537Z,1.60
2023-04-02T02:31:59.861Z,2.10
2023-04-02T02:37:15.025Z,2.00
2023-04-02T02:42:28.609Z,2.70
2023-04-02T02:47:37.461Z,2.30
2023-04-02T02:52:52.312Z,2.50
2023-04-02T02:58:03.087Z,1.70
2023-04-02T03:03:14.377Z,2.10
2023-04-02T03:08:30.350Z,2.00
2023-04-02T03:13:38.975Z,1.00
2023-04-02T03:18:52.285Z,1.90
2023-04-02T03:24:04.154Z,1.80
2023-04-02T03:29:19.772Z,1.50
2023-04-02T03:34:33.055Z,1.90
2023-04-02T03:39:45.070Z,1.80
2023-04-02T03:44:57.484Z,1.10
2023-04-02T03:50:10.927Z,1.60
2023-04-02T03:55:22.592Z,1.90
2023-04-02T04:00:37.233Z,1.70
2023-04-02T04:05:51.655Z,1.50
2023-04-02T04:11:07.610Z,1.60
2023-04-02T04:16:19.408Z,1.50
2023-04-02T04:21:36.851Z,2.00
2023-04-02T04:26:49.145Z,1.70
2023-04-02T04:31:55.394Z,1.20
2023-04-02T04:37:07.413Z,2.10
2023-04-02T04:42:21.353Z,1.10
2023-04-02T04:47:32.755Z,2.30
2023-04-02T04:52:41.472Z,1.70
2023-04-02T04:57:50.830Z,1.90
2023-04-02T05:03:06.632Z,1.50
2023-04-02T05:08:19.656Z,1.70
2023-04-02T05:13:34.619Z,2.30
2023-04-02T05:18:47.636Z,2.00
2023-04-02T05:24:05.512Z,2.20
2023-04-02T05:29:18.631Z,1.20
2023-04-02T05:34:28.045Z,2.10
2023-04-02T05:39:33.898Z,1.50
2023-04-02T05:44:55.526Z,1.90
2023-04-02T05:50:21.589Z,1.40
2023-04-02T05:55:42.624Z,1.30
2023-04-02T06:01:20.564Z,1.60
2023-04-02T06:06:43.540Z,1.80
2023-04-02T06:11:56.145Z,1.10
2023-04-02T06:17:02.183Z,1.20
2023-04-02T06:22:20.994Z,1.70
2023-04-02T06:27:29.432Z,1.50
2023-04-02T06:32:35.785Z,1.30
2023-04-02T06:37:45.840Z,1.10
2023-04-02T06:42:59.092Z,1.40
2023-04-02T06:48:06.854Z,2.20
2023-04-02T06:53:23.913Z,1.80
2023-04-02T06:58:29.479Z,1.80
2023-04-02T07:03:35.701Z,1.70
2023-04-02T07:08:41.270Z,1.80
2023-04-02T07:13:47.870Z,1.40
2023-04-02T07:18:55.090Z,1.40
2023-04-02T07:24:00.812Z,1.00
2023-04-02T07:29:07.959Z,1.70
2023-04-02T07:34:13.770Z,1.50
2023-04-02T07:39:19.458Z,1.30
2023-04-02T07:44:25.385Z,1.40
2023-04-02T07:49:30.967Z,1.30
2023-04-02T07:54:37.804Z,1.70
2023-04-02T07:59:43.432Z,1.40
2023-04-02T08:04:50.808Z,1.80
2023-04-02T08:09:56.394Z,1.40
2023-04-02T08:15:02.521Z,1.60
2023-04-02T08:20:15.628Z,1.30
2023-04-02T08:25:21.220Z,0.90
2023-04-02T08:30:26.859Z,2.10
2023-04-02T08:35:33.394Z,1.60
2023-04-02T08:40:43.036Z,1.60
2023-04-02T08:46:04.671Z,1.10
2023-04-02T08:51:22.839Z,1.60
2023-04-02T08:56:37.532Z,1.40
2023-04-02T09:01:56.807Z,1.40
2023-04-02T09:07:04.002Z,1.50
2023-04-02T09:12:21.160Z,1.10
2023-04-02T09:17:29.139Z,1.70
2023-04-02T09:22:36.151Z,1.60
2023-04-02T09:27:41.816Z,1.10
2023-04-02T09:32:53.221Z,1.30
2023-04-02T09:38:22.163Z,1.30
2023-04-02T09:43:30.460Z,0.80
2023-04-02T09:48:39.621Z,2.00
2023-04-02T09:53:48.672Z,1.40
2023-04-02T09:59:07.744Z,2.20
2023-04-02T10:04:38.138Z,1.60
2023-04-02T10:09:44.410Z,3.60
2023-04-02T10:14:51.823Z,1.90
2023-04-02T10:20:01.839Z,1.70
2023-04-02T10:25:16.645Z,1.40
2023-04-02T10:30:26.815Z,1.70
2023-04-02T10:35:47.897Z,2.70
2023-04-02T10:41:02.921Z,1.90
2023-04-02T10:46:18.114Z,1.40
2023-04-02T10:51:38.875Z,1.50
2023-04-02T10:56:51.143Z,1.40
2023-04-02T11:02:01.913Z,1.50
2023-04-02T11:07:17.542Z,2.00
2023-04-02T11:12:30.110Z,1.40
2023-04-02T11:17:36.463Z,1.40
2023-04-02T11:22:42.430Z,1.50
2023-04-02T11:27:48.357Z,1.60
2023-04-02T11:32:55.910Z,1.00
2023-04-02T11:38:23.938Z,1.50
2023-04-02T11:43:59.595Z,0.90
2023-04-02T11:49:39.876Z,1.00
2023-04-02T11:54:46.948Z,1.90
2023-04-02T12:00:21.070Z,1.30
2023-04-02T12:05:36.312Z,0.70
2023-04-02T12:10:57.675Z,1.10
2023-04-02T12:16:04.219Z,1.00
2023-04-02T12:21:17.264Z,1.20
2023-04-02T12:26:37.839Z,0.90
2023-04-02T12:31:47.824Z,1.00
2023-04-02T12:37:02.310Z,0.80
2023-04-02T12:42:27.334Z,0.90
2023-04-02T12:47:33.846Z,0.90
2023-04-02T12:52:48.263Z,1.10
2023-04-02T12:58:00.318Z,1.70
2023-04-02T13:03:20.769Z,1.30
2023-04-02T13:08:30.302Z,1.60
2023-04-02T13:13:39.435Z,1.00
2023-04-02T13:18:47.394Z,1.10
2023-04-02T13:23:53.487Z,0.90
2023-04-02T13:29:10.884Z,0.90
2023-04-02T13:34:17.402Z,1.10
2023-04-02T13:39:23.845Z,0.80
2023-04-02T13:44:32.060Z,1.60
2023-04-02T13:49:38.178Z,1.10
2023-04-02T13:54:50.373Z,1.50
2023-04-02T13:59:56.091Z,1.20
2023-04-02T14:05:21.300Z,1.50
2023-04-02T14:10:46.673Z,0.70
2023-04-02T14:16:12.536Z,1.20
2023-04-02T14:21:30.827Z,0.90
2023-04-02T14:26:46.358Z,0.90
2023-04-02T14:32:00.207Z,1.10
2023-04-02T14:37:21.130Z,0.90
2023-04-02T14:42:34.199Z,0.80
2023-04-02T14:47:46.581Z,1.10
2023-04-02T14:52:58.627Z,0.80
2023-04-02T14:58:10.369Z,0.80
2023-04-02T15:03:23.166Z,0.70
2023-04-02T15:08:31.898Z,1.10
2023-04-02T15:13:43.686Z,1.20
2023-04-02T15:18:55.681Z,0.90
2023-04-02T15:24:14.108Z,1.30
2023-04-02T15:29:34.526Z,1.20
2023-04-02T15:34:48.663Z,1.20
2023-04-02T15:40:09.157Z,1.40
2023-04-02T15:45:43.231Z,1.00
2023-04-02T15:51:03.343Z,0.90
2023-04-02T15:56:25.199Z,0.80
2023-04-02T16:01:46.644Z,0.70
2023-04-02T16:07:19.908Z,0.80
2023-04-02T16:12:29.382Z,1.30
2023-04-02T16:17:42.025Z,0.80
2023-04-02T16:23:01.110Z,0.70
2023-04-02T16:28:19.858Z,0.70
2023-04-02T16:33:44.581Z,0.90
2023-04-02T16:39:01.361Z,1.00
2023-04-02T16:44:29.290Z,1.00
2023-04-02T16:49:42.438Z,1.30
2023-04-02T16:55:05.734Z,0.80
2023-04-02T17:00:24.793Z,1.00
2023-04-02T17:05:35.634Z,1.10
2023-04-02T17:10:51.779Z,0.70
2023-04-02T17:16:09.467Z,0.60
2023-04-02T17:21:21.633Z,0.60
2023-04-02T17:26:32.967Z,0.90
2023-04-02T17:31:41.563Z,0.70
2023-04-02T17:36:57.789Z,0.50
2023-04-02T17:42:18.113Z,1.20
2023-04-02T17:47:30.665Z,0.60
2023-04-02T17:52:44.369Z,1.60
2023-04-02T17:58:07.476Z,0.80
2023-04-02T18:03:40.443Z,1.40
2023-04-02T18:09:05.640Z,1.00
2023-04-02T18:14:34.447Z,0.90
2023-04-02T18:19:51.113Z,0.90
2023-04-02T18:25:24.826Z,1.20
2023-04-02T18:30:42.848Z,0.70
2023-04-02T18:36:01.670Z,0.50
2023-04-02T18:41:27.373Z,0.80
2023-04-02T18:46:44.452Z,0.60
2023-04-02T18:51:57.702Z,0.60
2023-04-02T18:57:12.613Z,1.10
2023-04-02T19:02:43.054Z,0.80
2023-04-02T19:07:54.272Z,0.70
2023-04-02T19:13:00.249Z,0.40
2023-04-02T19:18:18.863Z,0.80
2023-04-02T19:23:45.369Z,0.80
2023-04-02T19:29:03.441Z,0.50
2023-04-02T19:34:21.118Z,1.10
2023-04-02T19:39:53.834Z,1.00
2023-04-02T19:45:00.293Z,0.80
2023-04-02T19:50:08.076Z,0.80
2023-04-02T19:55:14.457Z,0.80
2023-04-02T20:00:22.216Z,0.80
2023-04-02T20:05:28.194Z,0.70
2023-04-02T20:10:34.590Z,1.20
2023-04-02T20:15:41.776Z,0.70
2023-04-02T20:20:49.182Z,1.00
2023-04-02T20:25:58.332Z,0.60
2023-04-02T20:31:13.812Z,1.80
2023-04-02T20:36:20.139Z,1.10
2023-04-02T20:41:27.058Z,0.70
2023-04-02T20:46:33.190Z,1.00
2023-04-02T20:51:39.149Z,0.50
2023-04-02T20:56:45.087Z,0.50
2023-04-02T21:01:51.237Z,0.60
2023-04-02T21:06:57.241Z,0.60
2023-04-02T21:12:03.186Z,0.50
2023-04-02T21:17:09.413Z,0.50
2023-04-02T21:22:15.056Z,0.40
2023-04-02T21:27:25.170Z,0.70
2023-04-02T21:32:31.386Z,0.70
2023-04-02T21:37:37.452Z,0.70
2023-04-02T21:42:43.228Z,0.60
2023-04-02T21:47:48.966Z,0.40
2023-04-02T21:52:54.846Z,0.50
2023-04-02T21:58:00.608Z,0.40
2023-04-02T22:03:06.341Z,0.50
2023-04-02T22:08:12.679Z,0.60
2023-04-02T22:13:18.760Z,0.50
2023-04-02T22:18:24.769Z,0.80
2023-04-02T22:23:32.271Z,0.40
2023-04-02T22:28:38.219Z,0.60
2023-04-02T22:33:45.082Z,0.50
2023-04-02T22:38:51.579Z,1.10
2023-04-02T22:43:58.511Z,0.50
2023-04-02T22:49:04.252Z,0.40
2023-04-02T22:54:10.188Z,0.40
2023-04-02T22:59:16.400Z,0.50
2023-04-02T23:04:22.713Z,0.50
2023-04-02T23:09:28.910Z,0.80
2023-04-02T23:14:34.973Z,0.40
2023-04-02T23:19:40.748Z,0.50
2023-04-02T23:24:46.816Z,0.60
2023-04-02T23:29:52.962Z,0.50
2023-04-02T23:34:59.164Z,0.50
2023-04-02T23:40:06.360Z,0.40
2023-04-02T23:45:13.361Z,0.50
2023-04-02T23:50:19.592Z,0.40
2023-04-02T23:55:25.527Z,0.40
